sensor_id;sensor_type;location;lat;lon;timestamp;pressure;altitude;pressure_sealevel;temperature;humidity
69058;BME280;56128;37.534;-122.308;2022-08-01T00:01:39;101314.38;;;22.41;60.00
69058;BME280;56128;37.534;-122.308;2022-08-01T00:04:04;101322.56;;;22.41;59.00
69058;BME280;56128;37.534;-122.308;2022-08-01T00:06:30;101321.53;;;22.42;59.66
69058;BME280;56128;37.534;-122.308;2022-08-01T00:08:56;101323.00;;;22.53;58.99
69058;BME280;56128;37.534;-122.308;2022-08-01T00:11:22;101325.00;;;22.59;58.75
69058;BME280;56128;37.534;-122.308;2022-08-01T00:13:48;101330.06;;;22.62;58.53
69058;BME280;56128;37.534;-122.308;2022-08-01T00:16:14;101321.34;;;22.67;58.51
69058;BME280;56128;37.534;-122.308;2022-08-01T00:18:41;101327.97;;;22.73;57.85
69058;BME280;56128;37.534;-122.308;2022-08-01T00:21:06;101321.94;;;22.77;57.91
69058;BME280;56128;37.534;-122.308;2022-08-01T00:23:32;101325.34;;;22.79;57.70
69058;BME280;56128;37.534;-122.308;2022-08-01T00:25:58;101317.06;;;22.88;57.38
69058;BME280;56128;37.534;-122.308;2022-08-01T00:28:24;101318.97;;;22.87;57.14
69058;BME280;56128;37.534;-122.308;2022-08-01T00:30:50;101313.22;;;22.82;57.49
69058;BME280;56128;37.534;-122.308;2022-08-01T00:33:15;101318.59;;;22.90;57.36
69058;BME280;56128;37.534;-122.308;2022-08-01T00:35:41;101315.09;;;22.96;56.96
69058;BME280;56128;37.534;-122.308;2022-08-01T00:38:07;101306.38;;;23.01;57.50
69058;BME280;56128;37.534;-122.308;2022-08-01T00:40:33;101309.78;;;23.03;56.86
69058;BME280;56128;37.534;-122.308;2022-08-01T00:42:59;101309.47;;;22.98;56.75
69058;BME280;56128;37.534;-122.308;2022-08-01T00:45:25;101312.94;;;22.92;57.12
69058;BME280;56128;37.534;-122.308;2022-08-01T00:47:51;101308.59;;;22.82;57.36
69058;BME280;56128;37.534;-122.308;2022-08-01T00:50:17;101310.19;;;22.77;57.11
69058;BME280;56128;37.534;-122.308;2022-08-01T00:52:42;101304.59;;;22.70;56.89
69058;BME280;56128;37.534;-122.308;2022-08-01T00:55:09;101309.00;;;22.56;57.18
69058;BME280;56128;37.534;-122.308;2022-08-01T00:57:35;101313.81;;;22.54;57.59
69058;BME280;56128;37.534;-122.308;2022-08-01T01:00:01;101309.91;;;22.48;57.77
69058;BME280;56128;37.534;-122.308;2022-08-01T01:02:27;101309.47;;;22.36;57.65
69058;BME280;56128;37.534;-122.308;2022-08-01T01:04:53;101309.91;;;22.25;58.21
69058;BME280;56128;37.534;-122.308;2022-08-01T01:07:21;101311.16;;;22.14;58.79
69058;BME280;56128;37.534;-122.308;2022-08-01T01:10:03;101305.09;;;22.04;59.26
69058;BME280;56128;37.534;-122.308;2022-08-01T01:12:36;101305.31;;;21.94;59.57
69058;BME280;56128;37.534;-122.308;2022-08-01T01:15:17;101305.50;;;21.93;59.94
69058;BME280;56128;37.534;-122.308;2022-08-01T01:20:13;101309.66;;;21.80;59.71
69058;BME280;56128;37.534;-122.308;2022-08-01T01:22:46;101306.28;;;21.70;60.11
69058;BME280;56128;37.534;-122.308;2022-08-01T01:27:50;101307.53;;;21.59;60.72
69058;BME280;56128;37.534;-122.308;2022-08-01T01:30:17;101307.69;;;21.49;60.56
69058;BME280;56128;37.534;-122.308;2022-08-01T01:32:43;101299.72;;;21.48;61.06
69058;BME280;56128;37.534;-122.308;2022-08-01T01:35:14;101310.41;;;21.49;61.02
69058;BME280;56128;37.534;-122.308;2022-08-01T01:37:40;101305.34;;;21.46;60.86
69058;BME280;56128;37.534;-122.308;2022-08-01T01:40:07;101306.19;;;21.47;61.29
69058;BME280;56128;37.534;-122.308;2022-08-01T01:42:35;101305.16;;;21.48;60.74
69058;BME280;56128;37.534;-122.308;2022-08-01T01:45:02;101299.72;;;21.48;60.90
69058;BME280;56128;37.534;-122.308;2022-08-01T01:47:30;101295.47;;;21.45;60.58
69058;BME280;56128;37.534;-122.308;2022-08-01T01:49:56;101311.44;;;21.48;60.64
69058;BME280;56128;37.534;-122.308;2022-08-01T01:52:23;101308.91;;;21.47;60.69
69058;BME280;56128;37.534;-122.308;2022-08-01T01:54:50;101312.69;;;21.37;60.29
69058;BME280;56128;37.534;-122.308;2022-08-01T01:57:17;101324.59;;;21.36;60.46
69058;BME280;56128;37.534;-122.308;2022-08-01T01:59:43;101320.72;;;21.22;60.44
69058;BME280;56128;37.534;-122.308;2022-08-01T02:02:10;101326.84;;;21.16;61.01
69058;BME280;56128;37.534;-122.308;2022-08-01T02:04:38;101325.66;;;21.11;61.13
69058;BME280;56128;37.534;-122.308;2022-08-01T02:07:05;101326.19;;;20.98;61.82
69058;BME280;56128;37.534;-122.308;2022-08-01T02:09:34;101329.97;;;20.88;62.17
69058;BME280;56128;37.534;-122.308;2022-08-01T02:12:01;101339.47;;;20.84;62.01
69058;BME280;56128;37.534;-122.308;2022-08-01T02:14:27;101333.69;;;20.79;62.64
69058;BME280;56128;37.534;-122.308;2022-08-01T02:16:54;101334.03;;;20.76;62.94
69058;BME280;56128;37.534;-122.308;2022-08-01T02:19:22;101335.41;;;20.72;63.07
69058;BME280;56128;37.534;-122.308;2022-08-01T02:24:19;101333.81;;;20.53;63.99
69058;BME280;56128;37.534;-122.308;2022-08-01T02:26:49;101334.00;;;20.43;64.76
69058;BME280;56128;37.534;-122.308;2022-08-01T02:29:29;101325.50;;;20.30;65.49
69058;BME280;56128;37.534;-122.308;2022-08-01T02:31:58;101328.53;;;20.26;65.40
69058;BME280;56128;37.534;-122.308;2022-08-01T02:34:25;101331.91;;;20.20;65.36
69058;BME280;56128;37.534;-122.308;2022-08-01T02:36:53;101327.97;;;20.06;65.84
69058;BME280;56128;37.534;-122.308;2022-08-01T02:39:21;101332.22;;;20.01;66.17
69058;BME280;56128;37.534;-122.308;2022-08-01T02:41:48;101325.91;;;19.92;66.48
69058;BME280;56128;37.534;-122.308;2022-08-01T02:44:21;101324.03;;;19.84;66.49
69058;BME280;56128;37.534;-122.308;2022-08-01T02:46:50;101326.66;;;19.76;66.81
69058;BME280;56128;37.534;-122.308;2022-08-01T02:49:16;101329.88;;;19.71;66.87
69058;BME280;56128;37.534;-122.308;2022-08-01T02:51:44;101321.19;;;19.59;67.39
69058;BME280;56128;37.534;-122.308;2022-08-01T02:54:12;101329.59;;;19.48;67.94
69058;BME280;56128;37.534;-122.308;2022-08-01T02:56:40;101334.63;;;19.35;68.47
69058;BME280;56128;37.534;-122.308;2022-08-01T02:59:09;101334.94;;;19.32;68.82
69058;BME280;56128;37.534;-122.308;2022-08-01T03:01:36;101340.69;;;19.28;68.66
69058;BME280;56128;37.534;-122.308;2022-08-01T03:04:04;101338.25;;;19.17;69.41
69058;BME280;56128;37.534;-122.308;2022-08-01T03:06:31;101338.88;;;19.11;69.72
69058;BME280;56128;37.534;-122.308;2022-08-01T03:08:57;101335.75;;;18.97;70.42
69058;BME280;56128;37.534;-122.308;2022-08-01T03:11:24;101349.06;;;18.91;70.65
69058;BME280;56128;37.534;-122.308;2022-08-01T03:13:51;101351.00;;;18.80;71.32
69058;BME280;56128;37.534;-122.308;2022-08-01T03:16:18;101350.78;;;18.74;71.56
69058;BME280;56128;37.534;-122.308;2022-08-01T03:18:46;101347.63;;;18.60;72.11
69058;BME280;56128;37.534;-122.308;2022-08-01T03:21:13;101350.19;;;18.44;72.71
69058;BME280;56128;37.534;-122.308;2022-08-01T03:23:40;101353.50;;;18.38;73.14
69058;BME280;56128;37.534;-122.308;2022-08-01T03:26:07;101353.66;;;18.36;73.67
69058;BME280;56128;37.534;-122.308;2022-08-01T03:28:33;101352.72;;;18.27;73.50
69058;BME280;56128;37.534;-122.308;2022-08-01T03:30:59;101347.91;;;18.21;74.08
69058;BME280;56128;37.534;-122.308;2022-08-01T03:33:25;101353.94;;;18.15;73.97
69058;BME280;56128;37.534;-122.308;2022-08-01T03:35:52;101355.88;;;18.05;74.78
69058;BME280;56128;37.534;-122.308;2022-08-01T03:38:21;101357.53;;;18.06;74.55
69058;BME280;56128;37.534;-122.308;2022-08-01T03:40:52;101366.75;;;17.95;75.25
69058;BME280;56128;37.534;-122.308;2022-08-01T03:43:32;101372.56;;;17.90;75.60
69058;BME280;56128;37.534;-122.308;2022-08-01T03:46:02;101367.47;;;17.87;75.58
69058;BME280;56128;37.534;-122.308;2022-08-01T03:48:32;101362.50;;;17.82;75.78
69058;BME280;56128;37.534;-122.308;2022-08-01T03:51:01;101376.63;;;17.76;75.99
69058;BME280;56128;37.534;-122.308;2022-08-01T03:53:28;101375.50;;;17.69;76.39
69058;BME280;56128;37.534;-122.308;2022-08-01T03:55:55;101380.69;;;17.62;76.73
69058;BME280;56128;37.534;-122.308;2022-08-01T03:58:21;101375.16;;;17.54;77.07
69058;BME280;56128;37.534;-122.308;2022-08-01T04:00:47;101388.25;;;17.49;77.43
69058;BME280;56128;37.534;-122.308;2022-08-01T04:03:14;101380.72;;;17.43;77.80
69058;BME280;56128;37.534;-122.308;2022-08-01T04:05:40;101387.75;;;17.35;77.93
69058;BME280;56128;37.534;-122.308;2022-08-01T04:08:07;101384.75;;;17.29;78.23
69058;BME280;56128;37.534;-122.308;2022-08-01T04:10:32;101394.59;;;17.20;78.56
69058;BME280;56128;37.534;-122.308;2022-08-01T04:12:58;101395.91;;;17.16;79.00
69058;BME280;56128;37.534;-122.308;2022-08-01T04:15:24;101395.47;;;17.11;79.04
69058;BME280;56128;37.534;-122.308;2022-08-01T04:17:50;101394.06;;;17.07;79.38
69058;BME280;56128;37.534;-122.308;2022-08-01T04:20:16;101401.63;;;17.03;79.28
69058;BME280;56128;37.534;-122.308;2022-08-01T04:22:42;101401.88;;;17.00;79.27
69058;BME280;56128;37.534;-122.308;2022-08-01T04:25:15;101411.72;;;17.01;79.57
69058;BME280;56128;37.534;-122.308;2022-08-01T04:27:43;101420.38;;;16.95;79.61
69058;BME280;56128;37.534;-122.308;2022-08-01T04:30:11;101426.19;;;16.90;80.12
69058;BME280;56128;37.534;-122.308;2022-08-01T04:32:37;101427.78;;;16.83;80.12
69058;BME280;56128;37.534;-122.308;2022-08-01T04:35:05;101432.28;;;16.72;80.85
69058;BME280;56128;37.534;-122.308;2022-08-01T04:37:31;101441.09;;;16.65;81.18
69058;BME280;56128;37.534;-122.308;2022-08-01T04:39:58;101445.34;;;16.58;81.63
69058;BME280;56128;37.534;-122.308;2022-08-01T04:42:24;101441.09;;;16.55;81.79
69058;BME280;56128;37.534;-122.308;2022-08-01T04:44:50;101441.66;;;16.39;82.53
69058;BME280;56128;37.534;-122.308;2022-08-01T04:47:16;101442.59;;;16.28;83.21
69058;BME280;56128;37.534;-122.308;2022-08-01T04:49:42;101451.00;;;16.25;83.18
69058;BME280;56128;37.534;-122.308;2022-08-01T04:52:11;101441.59;;;16.19;83.76
69058;BME280;56128;37.534;-122.308;2022-08-01T04:54:36;101452.78;;;16.15;83.65
69058;BME280;56128;37.534;-122.308;2022-08-01T04:57:03;101464.88;;;16.11;83.90
69058;BME280;56128;37.534;-122.308;2022-08-01T04:59:29;101462.44;;;16.08;83.61
69058;BME280;56128;37.534;-122.308;2022-08-01T05:02:15;101463.25;;;15.98;84.25
69058;BME280;56128;37.534;-122.308;2022-08-01T05:04:41;101472.75;;;15.93;84.29
69058;BME280;56128;37.534;-122.308;2022-08-01T05:07:07;101473.28;;;15.86;84.87
69058;BME280;56128;37.534;-122.308;2022-08-01T05:09:33;101470.13;;;15.81;85.74
69058;BME280;56128;37.534;-122.308;2022-08-01T05:12:01;101473.94;;;15.79;85.37
69058;BME280;56128;37.534;-122.308;2022-08-01T05:14:28;101474.91;;;15.78;85.25
69058;BME280;56128;37.534;-122.308;2022-08-01T05:16:57;101476.03;;;15.75;85.07
69058;BME280;56128;37.534;-122.308;2022-08-01T05:19:23;101476.28;;;15.72;85.79
69058;BME280;56128;37.534;-122.308;2022-08-01T05:21:48;101485.78;;;15.66;86.20
69058;BME280;56128;37.534;-122.308;2022-08-01T05:24:14;101485.34;;;15.61;86.70
69058;BME280;56128;37.534;-122.308;2022-08-01T05:26:40;101481.91;;;15.59;87.11
69058;BME280;56128;37.534;-122.308;2022-08-01T05:29:06;101472.38;;;15.55;86.96
69058;BME280;56128;37.534;-122.308;2022-08-01T05:31:32;101471.50;;;15.54;87.03
69058;BME280;56128;37.534;-122.308;2022-08-01T05:34:02;101472.75;;;15.50;86.46
69058;BME280;56128;37.534;-122.308;2022-08-01T05:36:28;101470.44;;;15.46;87.51
69058;BME280;56128;37.534;-122.308;2022-08-01T05:38:54;101473.16;;;15.46;88.35
69058;BME280;56128;37.534;-122.308;2022-08-01T05:41:20;101471.31;;;15.46;88.65
69058;BME280;56128;37.534;-122.308;2022-08-01T05:43:46;101476.72;;;15.46;88.58
69058;BME280;56128;37.534;-122.308;2022-08-01T05:46:12;101474.88;;;15.47;88.54
69058;BME280;56128;37.534;-122.308;2022-08-01T05:48:38;101488.34;;;15.47;88.63
69058;BME280;56128;37.534;-122.308;2022-08-01T05:51:03;101493.16;;;15.43;87.93
69058;BME280;56128;37.534;-122.308;2022-08-01T05:53:29;101494.13;;;15.42;88.11
69058;BME280;56128;37.534;-122.308;2022-08-01T05:55:55;101498.69;;;15.41;89.25
69058;BME280;56128;37.534;-122.308;2022-08-01T05:58:21;101501.63;;;15.38;89.30
69058;BME280;56128;37.534;-122.308;2022-08-01T06:00:47;101503.59;;;15.36;89.37
69058;BME280;56128;37.534;-122.308;2022-08-01T06:03:13;101510.97;;;15.34;89.63
69058;BME280;56128;37.534;-122.308;2022-08-01T06:05:39;101507.56;;;15.32;89.77
69058;BME280;56128;37.534;-122.308;2022-08-01T06:08:05;101503.16;;;15.31;89.86
69058;BME280;56128;37.534;-122.308;2022-08-01T06:10:31;101499.72;;;15.29;90.06
69058;BME280;56128;37.534;-122.308;2022-08-01T06:12:57;101504.38;;;15.27;90.03
69058;BME280;56128;37.534;-122.308;2022-08-01T06:15:23;101502.41;;;15.29;90.30
69058;BME280;56128;37.534;-122.308;2022-08-01T06:17:48;101504.38;;;15.27;90.18
69058;BME280;56128;37.534;-122.308;2022-08-01T06:20:14;101502.69;;;15.26;90.46
69058;BME280;56128;37.534;-122.308;2022-08-01T06:22:40;101506.38;;;15.25;90.51
69058;BME280;56128;37.534;-122.308;2022-08-01T06:25:06;101510.19;;;15.22;90.40
69058;BME280;56128;37.534;-122.308;2022-08-01T06:27:35;101509.44;;;15.20;91.12
69058;BME280;56128;37.534;-122.308;2022-08-01T06:30:01;101506.00;;;15.18;91.21
69058;BME280;56128;37.534;-122.308;2022-08-01T06:32:27;101508.97;;;15.15;91.62
69058;BME280;56128;37.534;-122.308;2022-08-01T06:34:53;101504.56;;;15.14;92.06
69058;BME280;56128;37.534;-122.308;2022-08-01T06:37:19;101502.75;;;15.15;92.07
69058;BME280;56128;37.534;-122.308;2022-08-01T06:39:45;101494.88;;;15.12;92.29
69058;BME280;56128;37.534;-122.308;2022-08-01T06:42:10;101497.13;;;15.06;92.20
69058;BME280;56128;37.534;-122.308;2022-08-01T06:44:36;101492.56;;;15.07;91.48
69058;BME280;56128;37.534;-122.308;2022-08-01T06:47:02;101495.41;;;15.05;92.54
69058;BME280;56128;37.534;-122.308;2022-08-01T06:49:28;101499.06;;;15.04;92.08
69058;BME280;56128;37.534;-122.308;2022-08-01T06:51:54;101490.88;;;15.06;91.86
69058;BME280;56128;37.534;-122.308;2022-08-01T06:54:19;101490.16;;;15.04;91.71
69058;BME280;56128;37.534;-122.308;2022-08-01T06:56:46;101495.78;;;15.01;91.57
69058;BME280;56128;37.534;-122.308;2022-08-01T06:59:12;101478.78;;;15.00;91.81
69058;BME280;56128;37.534;-122.308;2022-08-01T07:01:37;101481.47;;;15.00;92.00
69058;BME280;56128;37.534;-122.308;2022-08-01T07:04:03;101483.19;;;15.01;91.63
69058;BME280;56128;37.534;-122.308;2022-08-01T07:06:29;101487.84;;;14.99;91.64
69058;BME280;56128;37.534;-122.308;2022-08-01T07:08:55;101490.53;;;14.99;91.48
69058;BME280;56128;37.534;-122.308;2022-08-01T07:11:21;101485.28;;;14.98;91.07
69058;BME280;56128;37.534;-122.308;2022-08-01T07:13:47;101478.03;;;14.98;91.58
69058;BME280;56128;37.534;-122.308;2022-08-01T07:16:13;101469.25;;;14.96;91.83
69058;BME280;56128;37.534;-122.308;2022-08-01T07:18:39;101458.59;;;14.95;91.58
69058;BME280;56128;37.534;-122.308;2022-08-01T07:21:05;101464.09;;;14.93;91.85
69058;BME280;56128;37.534;-122.308;2022-08-01T07:23:31;101458.69;;;14.93;91.79
69058;BME280;56128;37.534;-122.308;2022-08-01T07:25:57;101471.06;;;14.96;91.41
69058;BME280;56128;37.534;-122.308;2022-08-01T07:28:24;101459.44;;;14.95;91.75
69058;BME280;56128;37.534;-122.308;2022-08-01T07:30:49;101456.00;;;14.93;91.11
69058;BME280;56128;37.534;-122.308;2022-08-01T07:33:15;101450.50;;;14.95;91.01
69058;BME280;56128;37.534;-122.308;2022-08-01T07:35:41;101452.59;;;14.91;91.30
69058;BME280;56128;37.534;-122.308;2022-08-01T07:38:07;101454.28;;;14.92;91.41
69058;BME280;56128;37.534;-122.308;2022-08-01T07:40:33;101449.91;;;14.91;91.22
69058;BME280;56128;37.534;-122.308;2022-08-01T07:42:59;101446.19;;;14.92;92.06
69058;BME280;56128;37.534;-122.308;2022-08-01T07:45:25;101445.63;;;14.88;92.55
69058;BME280;56128;37.534;-122.308;2022-08-01T07:47:52;101449.31;;;14.87;92.02
69058;BME280;56128;37.534;-122.308;2022-08-01T07:50:18;101447.47;;;14.88;91.66
69058;BME280;56128;37.534;-122.308;2022-08-01T07:52:44;101439.38;;;14.88;91.51
69058;BME280;56128;37.534;-122.308;2022-08-01T07:55:10;101441.22;;;14.87;91.41
69058;BME280;56128;37.534;-122.308;2022-08-01T07:57:36;101438.66;;;14.86;90.86
69058;BME280;56128;37.534;-122.308;2022-08-01T08:00:03;101442.34;;;14.85;91.24
69058;BME280;56128;37.534;-122.308;2022-08-01T08:02:30;101440.63;;;14.84;91.35
69058;BME280;56128;37.534;-122.308;2022-08-01T08:04:55;101439.88;;;14.82;91.09
69058;BME280;56128;37.534;-122.308;2022-08-01T08:07:21;101437.94;;;14.84;92.00
69058;BME280;56128;37.534;-122.308;2022-08-01T08:09:47;101439.78;;;14.83;91.62
69058;BME280;56128;37.534;-122.308;2022-08-01T08:12:12;101443.31;;;14.84;91.95
69058;BME280;56128;37.534;-122.308;2022-08-01T08:14:38;101440.63;;;14.84;91.48
69058;BME280;56128;37.534;-122.308;2022-08-01T08:17:04;101434.13;;;14.86;92.22
69058;BME280;56128;37.534;-122.308;2022-08-01T08:19:30;101427.88;;;14.86;92.24
69058;BME280;56128;37.534;-122.308;2022-08-01T08:22:01;101438.91;;;14.83;93.32
69058;BME280;56128;37.534;-122.308;2022-08-01T08:24:26;101444.06;;;14.86;92.85
69058;BME280;56128;37.534;-122.308;2022-08-01T08:26:59;101445.75;;;14.87;92.28
69058;BME280;56128;37.534;-122.308;2022-08-01T08:29:25;101439.38;;;14.88;93.20
69058;BME280;56128;37.534;-122.308;2022-08-01T08:31:52;101443.03;;;14.87;92.37
69058;BME280;56128;37.534;-122.308;2022-08-01T08:34:18;101438.53;;;14.87;92.46
69058;BME280;56128;37.534;-122.308;2022-08-01T08:36:43;101435.97;;;14.86;92.00
69058;BME280;56128;37.534;-122.308;2022-08-01T08:39:09;101428.88;;;14.85;92.10
69058;BME280;56128;37.534;-122.308;2022-08-01T08:41:35;101433.28;;;14.86;nan
69058;BME280;56128;37.534;-122.308;2022-08-01T08:44:02;101444.75;;;14.88;93.12
69058;BME280;56128;37.534;-122.308;2022-08-01T08:46:28;101441.34;;;14.86;92.88
69058;BME280;56128;37.534;-122.308;2022-08-01T08:48:54;101441.47;;;14.84;92.87
69058;BME280;56128;37.534;-122.308;2022-08-01T08:51:20;101445.28;;;14.82;92.83
69058;BME280;56128;37.534;-122.308;2022-08-01T08:53:46;101439.19;;;14.80;93.12
69058;BME280;56128;37.534;-122.308;2022-08-01T08:56:13;101446.25;;;14.81;92.27
69058;BME280;56128;37.534;-122.308;2022-08-01T08:58:43;101445.53;;;14.79;92.35
69058;BME280;56128;37.534;-122.308;2022-08-01T09:01:09;101445.78;;;14.75;92.79
69058;BME280;56128;37.534;-122.308;2022-08-01T09:03:35;101449.47;;;14.74;92.54
69058;BME280;56128;37.534;-122.308;2022-08-01T09:06:01;101444.94;;;14.75;92.35
69058;BME280;56128;37.534;-122.308;2022-08-01T09:08:27;101435.28;;;14.72;92.66
69058;BME280;56128;37.534;-122.308;2022-08-01T09:10:53;101437.22;;;14.70;93.14
69058;BME280;56128;37.534;-122.308;2022-08-01T09:13:19;101439.94;;;14.70;92.75
69058;BME280;56128;37.534;-122.308;2022-08-01T09:15:49;101444.47;;;14.70;92.63
69058;BME280;56128;37.534;-122.308;2022-08-01T09:20:59;101453.41;;;14.70;92.30
69058;BME280;56128;37.534;-122.308;2022-08-01T09:23:36;101460.63;;;14.70;92.57
69058;BME280;56128;37.534;-122.308;2022-08-01T09:26:10;101465.03;;;14.71;93.20
69058;BME280;56128;37.534;-122.308;2022-08-01T09:28:36;101469.81;;;14.67;92.64
69058;BME280;56128;37.534;-122.308;2022-08-01T09:31:09;101476.94;;;14.68;92.74
69058;BME280;56128;37.534;-122.308;2022-08-01T09:34:24;101482.31;;;14.68;92.46
69058;BME280;56128;37.534;-122.308;2022-08-01T09:36:26;101476.06;;;14.68;92.41
69058;BME280;56128;37.534;-122.308;2022-08-01T09:38:53;101485.09;;;14.67;92.19
69058;BME280;56128;37.534;-122.308;2022-08-01T09:41:29;101477.91;;;14.67;92.56
69058;BME280;56128;37.534;-122.308;2022-08-01T09:43:56;101478.88;;;14.66;93.37
69058;BME280;56128;37.534;-122.308;2022-08-01T09:46:22;101478.03;;;14.66;93.12
69058;BME280;56128;37.534;-122.308;2022-08-01T09:49:01;101478.09;;;14.64;92.65
69058;BME280;56128;37.534;-122.308;2022-08-01T09:51:32;101484.47;;;14.63;92.71
69058;BME280;56128;37.534;-122.308;2022-08-01T09:53:58;101479.97;;;14.64;92.85
69058;BME280;56128;37.534;-122.308;2022-08-01T09:56:24;101485.47;;;14.62;92.73
69058;BME280;56128;37.534;-122.308;2022-08-01T09:58:52;101492.56;;;14.63;92.20
69058;BME280;56128;37.534;-122.308;2022-08-01T10:01:19;101488.16;;;14.62;92.81
69058;BME280;56128;37.534;-122.308;2022-08-01T10:03:45;101488.28;;;14.60;92.25
69058;BME280;56128;37.534;-122.308;2022-08-01T10:06:21;101484.72;;;14.60;92.82
69058;BME280;56128;37.534;-122.308;2022-08-01T10:08:47;101480.31;;;14.59;93.59
69058;BME280;56128;37.534;-122.308;2022-08-01T10:11:13;101480.19;;;14.60;94.90
69058;BME280;56128;37.534;-122.308;2022-08-01T10:13:39;101481.06;;;14.61;94.79
69058;BME280;56128;37.534;-122.308;2022-08-01T10:16:05;101491.84;;;14.61;95.54
69058;BME280;56128;37.534;-122.308;2022-08-01T10:18:32;101486.44;;;14.61;95.14
69058;BME280;56128;37.534;-122.308;2022-08-01T10:20:58;101493.56;;;14.62;95.01
69058;BME280;56128;37.534;-122.308;2022-08-01T10:23:25;101497.22;;;14.61;94.49
69058;BME280;56128;37.534;-122.308;2022-08-01T10:25:52;101490.13;;;14.60;95.01
69058;BME280;56128;37.534;-122.308;2022-08-01T10:28:19;101485.72;;;14.59;94.80
69058;BME280;56128;37.534;-122.308;2022-08-01T10:30:45;101486.69;;;14.58;94.76
69058;BME280;56128;37.534;-122.308;2022-08-01T10:33:11;101480.47;;;14.57;94.32
69058;BME280;56128;37.534;-122.308;2022-08-01T10:35:40;101479.63;;;14.57;93.86
69058;BME280;56128;37.534;-122.308;2022-08-01T10:38:06;101482.19;;;14.58;94.48
69058;BME280;56128;37.534;-122.308;2022-08-01T10:40:32;101478.75;;;14.56;95.01
69058;BME280;56128;37.534;-122.308;2022-08-01T10:42:58;101465.53;;;14.53;94.93
69058;BME280;56128;37.534;-122.308;2022-08-01T10:45:24;101469.91;;;14.54;94.15
69058;BME280;56128;37.534;-122.308;2022-08-01T10:47:59;101472.75;;;14.53;94.22
69058;BME280;56128;37.534;-122.308;2022-08-01T10:50:32;101472.03;;;14.51;94.09
69058;BME280;56128;37.534;-122.308;2022-08-01T10:55:56;101468.47;;;14.50;93.85
69058;BME280;56128;37.534;-122.308;2022-08-01T11:03:35;101476.91;;;14.45;94.08
69058;BME280;56128;37.534;-122.308;2022-08-01T11:06:01;101476.91;;;14.45;93.29
69058;BME280;56128;37.534;-122.308;2022-08-01T11:08:28;101468.97;;;14.44;93.29
69058;BME280;56128;37.534;-122.308;2022-08-01T11:10:59;101469.09;;;14.42;93.71
69058;BME280;56128;37.534;-122.308;2022-08-01T11:16:29;101467.38;;;14.41;95.13
69058;BME280;56128;37.534;-122.308;2022-08-01T11:18:55;101462.88;;;14.42;95.00
69058;BME280;56128;37.534;-122.308;2022-08-01T11:21:21;101466.69;;;14.39;94.27
69058;BME280;56128;37.534;-122.308;2022-08-01T11:23:51;101477.31;;;14.41;94.31
69058;BME280;56128;37.534;-122.308;2022-08-01T11:26:18;101479.13;;;14.40;94.13
69058;BME280;56128;37.534;-122.308;2022-08-01T11:28:45;101480.13;;;14.39;93.88
69058;BME280;56128;37.534;-122.308;2022-08-01T11:41:10;101491.13;;;14.36;94.33
69058;BME280;56128;37.534;-122.308;2022-08-01T11:47:21;101491.13;;;14.36;94.53
69058;BME280;56128;37.534;-122.308;2022-08-01T11:52:24;101493.84;;;14.36;95.34
69058;BME280;56128;37.534;-122.308;2022-08-01T11:54:49;101504.38;;;14.39;95.36
69058;BME280;56128;37.534;-122.308;2022-08-01T11:57:19;101503.63;;;14.37;95.23
69058;BME280;56128;37.534;-122.308;2022-08-01T11:59:49;101498.47;;;14.34;95.00
69058;BME280;56128;37.534;-122.308;2022-08-01T12:02:16;101501.28;;;14.33;94.76
69058;BME280;56128;37.534;-122.308;2022-08-01T12:04:46;101506.44;;;14.36;95.72
69058;BME280;56128;37.534;-122.308;2022-08-01T12:07:15;101508.41;;;14.34;95.35
69058;BME280;56128;37.534;-122.308;2022-08-01T12:09:41;101513.03;;;14.32;94.98
69058;BME280;56128;37.534;-122.308;2022-08-01T12:12:07;101517.56;;;14.31;95.47
69058;BME280;56128;37.534;-122.308;2022-08-01T12:14:34;101519.53;;;14.29;95.07
69058;BME280;56128;37.534;-122.308;2022-08-01T12:17:00;101515.16;;;14.28;95.71
69058;BME280;56128;37.534;-122.308;2022-08-01T12:19:25;101522.59;;;14.24;95.52
69058;BME280;56128;37.534;-122.308;2022-08-01T12:24:36;101521.25;;;14.19;95.67
69058;BME280;56128;37.534;-122.308;2022-08-01T12:27:03;101513.44;;;14.16;96.21
69058;BME280;56128;37.534;-122.308;2022-08-01T12:29:36;101532.38;;;14.14;95.67
69058;BME280;56128;37.534;-122.308;2022-08-01T12:32:03;101523.56;;;14.12;96.06
69058;BME280;56128;37.534;-122.308;2022-08-01T12:34:29;101527.25;;;14.11;95.94
69058;BME280;56128;37.534;-122.308;2022-08-01T12:36:56;101531.03;;;14.08;95.81
69058;BME280;56128;37.534;-122.308;2022-08-01T12:39:22;101531.16;;;14.07;95.45
69058;BME280;56128;37.534;-122.308;2022-08-01T12:41:54;101539.34;;;14.05;95.45
69058;BME280;56128;37.534;-122.308;2022-08-01T12:44:19;101530.28;;;14.06;96.34
69058;BME280;56128;37.534;-122.308;2022-08-01T12:46:45;101528.09;;;14.11;96.74
69058;BME280;56128;37.534;-122.308;2022-08-01T12:49:11;101533.25;;;14.15;97.41
69058;BME280;56128;37.534;-122.308;2022-08-01T12:51:38;101528.34;;;14.20;98.89
69058;BME280;56128;37.534;-122.308;2022-08-01T12:54:04;101529.09;;;14.22;98.98
69058;BME280;56128;37.534;-122.308;2022-08-01T12:56:32;101521.72;;;14.24;99.17
69058;BME280;56128;37.534;-122.308;2022-08-01T12:58:58;101518.06;;;14.25;98.86
69058;BME280;56128;37.534;-122.308;2022-08-01T13:01:25;101518.81;;;14.27;98.61